createdAt,value
2023-02-03T00:01:06.386Z,72.56
2023-02-03T00:03:34.319Z,73.02
2023-02-03T00:06:02.822Z,72.98
2023-02-03T00:08:31.110Z,72.92
2023-02-03T00:11:02.333Z,72.78
2023-02-03T00:13:31.651Z,72.90
2023-02-03T00:16:01.936Z,72.97
2023-02-03T00:18:29.839Z,72.78
2023-02-03T00:20:57.745Z,72.23
2023-02-03T00:23:26.046Z,72.76
2023-02-03T00:25:54.528Z,72.43
2023-02-03T00:28:22.539Z,72.88
2023-02-03T00:30:54.213Z,73.11
2023-02-03T00:33:22.207Z,72.81
2023-02-03T00:35:50.359Z,73.52
2023-02-03T00:38:18.313Z,73.30
2023-02-03T00:40:53.345Z,72.75
2023-02-03T00:43:21.418Z,72.98
2023-02-03T00:45:49.504Z,72.98
2023-02-03T00:48:18.893Z,73.11
2023-02-03T00:50:47.557Z,73.04
2023-02-03T00:53:15.699Z,72.78
2023-02-03T00:55:44.211Z,73.29
2023-02-03T00:58:12.440Z,73.48
2023-02-03T01:00:40.419Z,73.48
2023-02-03T01:03:08.550Z,73.40
2023-02-03T01:05:38.226Z,73.41
2023-02-03T01:08:06.533Z,72.86
2023-02-03T01:10:34.523Z,73.20
2023-02-03T01:13:02.435Z,73.30
2023-02-03T01:15:30.482Z,73.44
2023-02-03T01:17:58.476Z,73.59
2023-02-03T01:20:26.753Z,73.51
2023-02-03T01:22:56.299Z,74.02
2023-02-03T01:25:24.300Z,73.41
2023-02-03T01:27:52.629Z,73.71
2023-02-03T01:30:20.835Z,73.35
2023-02-03T01:32:48.799Z,73.34
2023-02-03T01:35:16.792Z,73.79
2023-02-03T01:37:44.904Z,74.31
2023-02-03T01:40:14.731Z,73.53
2023-02-03T01:42:42.683Z,73.88
2023-02-03T01:45:13.459Z,74.10
2023-02-03T01:47:44.325Z,74.10
2023-02-03T01:50:14.929Z,74.31
2023-02-03T01:52:44.520Z,73.78
2023-02-03T01:55:14.456Z,73.58
2023-02-03T01:57:47.903Z,73.71
2023-02-03T02:00:16.033Z,73.66
2023-02-03T02:02:45.509Z,73.72
2023-02-03T02:05:16.472Z,73.67
2023-02-03T02:07:44.920Z,73.98
2023-02-03T02:10:13.154Z,74.04
2023-02-03T02:18:50.342Z,74.50
2023-02-03T02:21:24.605Z,74.68
2023-02-03T02:24:01.314Z,74.71
2023-02-03T02:26:47.232Z,74.49
2023-02-03T02:29:34.997Z,74.83
2023-02-03T02:32:17.017Z,74.94
2023-02-03T02:34:51.076Z,74.87
2023-02-03T02:37:24.298Z,75.16
2023-02-03T02:39:58.005Z,74.89
2023-02-03T02:42:30.399Z,74.78
2023-02-03T02:45:00.592Z,74.45
2023-02-03T02:47:30.016Z,74.65
2023-02-03T02:50:00.667Z,74.55
2023-02-03T02:52:31.197Z,74.65
2023-02-03T02:55:01.563Z,75.21
2023-02-03T02:57:32.897Z,75.33
2023-02-03T03:00:01.029Z,75.58
2023-02-03T03:02:35.167Z,75.44
2023-02-03T03:05:05.155Z,75.60
2023-02-03T03:07:37.486Z,75.59
2023-02-03T03:10:09.024Z,75.37
2023-02-03T03:12:39.041Z,75.53
2023-02-03T03:15:09.144Z,75.53
2023-02-03T03:17:41.701Z,75.51
2023-02-03T03:20:11.576Z,75.55
2023-02-03T03:22:43.310Z,75.47
2023-02-03T03:25:14.017Z,75.44
2023-02-03T03:27:45.849Z,76.09
2023-02-03T03:30:16.022Z,76.36
2023-02-03T03:32:46.285Z,76.13
2023-02-03T03:35:14.314Z,75.76
2023-02-03T03:37:44.927Z,75.64
2023-02-03T03:40:16.417Z,75.90
2023-02-03T03:42:47.517Z,75.81
2023-02-03T03:45:18.244Z,75.44
2023-02-03T03:47:51.347Z,75.67
2023-02-03T03:50:20.583Z,75.50
2023-02-03T03:52:50.831Z,75.55
2023-02-03T03:55:20.855Z,75.80
2023-02-03T03:57:53.293Z,75.33
2023-02-03T04:00:23.148Z,75.40
2023-02-03T04:02:54.196Z,75.51
2023-02-03T04:05:23.015Z,75.66
2023-02-03T04:07:50.963Z,76.00
2023-02-03T04:10:26.757Z,75.37
2023-02-03T04:12:54.884Z,75.41
2023-02-03T04:15:23.305Z,75.68
2023-02-03T04:17:52.687Z,75.65
2023-02-03T04:20:20.583Z,75.56
2023-02-03T04:22:49.053Z,75.51
2023-02-03T04:25:17.214Z,75.57
2023-02-03T04:27:45.354Z,75.41
2023-02-03T04:30:14.183Z,75.31
2023-02-03T04:32:42.529Z,75.73
2023-02-03T04:35:11.976Z,75.52
2023-02-03T04:37:39.943Z,75.18
2023-02-03T04:40:08.668Z,75.36
2023-02-03T04:42:38.986Z,75.37
2023-02-03T04:45:07.898Z,75.60
2023-02-03T04:47:36.124Z,75.83
2023-02-03T04:50:04.314Z,75.66
2023-02-03T04:52:34.057Z,75.40
2023-02-03T04:55:02.063Z,75.46
2023-02-03T04:57:31.018Z,75.39
2023-02-03T04:59:58.968Z,75.78
2023-02-03T05:02:26.890Z,75.67
2023-02-03T05:04:55.319Z,75.54
2023-02-03T05:07:23.351Z,75.46
2023-02-03T05:09:52.710Z,75.34
2023-02-03T05:12:20.990Z,75.72
2023-02-03T05:14:49.218Z,75.86
2023-02-03T05:17:17.194Z,75.57
2023-02-03T05:19:45.279Z,75.58
2023-02-03T05:25:22.479Z,75.85
2023-02-03T05:27:52.288Z,75.86
2023-02-03T05:30:20.580Z,75.87
2023-02-03T05:32:49.948Z,75.77
2023-02-03T05:35:17.938Z,75.70
2023-02-03T05:37:46.730Z,75.86
2023-02-03T05:40:32.238Z,75.59
2023-02-03T05:43:01.842Z,75.38
2023-02-03T05:45:30.003Z,75.50
2023-02-03T05:47:58.760Z,75.78
2023-02-03T05:50:28.036Z,75.67
2023-02-03T05:52:56.476Z,75.81
2023-02-03T05:55:24.720Z,75.53
2023-02-03T05:57:52.668Z,75.96
2023-02-03T06:00:22.922Z,76.00
2023-02-03T06:02:52.839Z,75.87
2023-02-03T06:05:21.004Z,75.52
2023-02-03T06:07:48.923Z,75.62
2023-02-03T06:10:17.761Z,75.49
2023-02-03T06:12:45.775Z,75.13
2023-02-03T06:15:13.836Z,75.31
2023-02-03T06:17:45.352Z,75.44
2023-02-03T06:20:14.125Z,75.07
2023-02-03T06:22:42.720Z,75.00
2023-02-03T06:25:13.038Z,75.16
2023-02-03T06:27:41.454Z,74.71
2023-02-03T06:30:10.259Z,74.77
2023-02-03T06:32:38.323Z,74.85
2023-02-03T06:35:08.190Z,74.66
2023-02-03T06:37:37.753Z,74.72
2023-02-03T06:40:06.355Z,74.67
2023-02-03T06:42:34.877Z,74.46
2023-02-03T06:45:03.219Z,74.38
2023-02-03T06:47:31.612Z,74.28
2023-02-03T06:49:59.657Z,74.64
2023-02-03T06:52:29.180Z,74.54
2023-02-03T06:54:57.281Z,74.41
2023-02-03T06:57:25.370Z,74.18
2023-02-03T06:59:53.488Z,74.14
2023-02-03T07:02:21.721Z,74.33
2023-02-03T07:04:50.026Z,73.56
2023-02-03T07:07:18.233Z,73.86
2023-02-03T07:09:47.816Z,73.44
2023-02-03T07:12:15.850Z,73.71
2023-02-03T07:14:44.067Z,73.42
2023-02-03T07:17:12.073Z,73.08
2023-02-03T07:19:39.993Z,73.51
2023-02-03T07:22:08.137Z,73.57
2023-02-03T07:24:36.128Z,73.18
2023-02-03T07:27:05.744Z,73.09
2023-02-03T07:29:33.726Z,73.10
2023-02-03T07:32:02.946Z,72.81
2023-02-03T07:34:31.149Z,71.59
2023-02-03T07:36:59.341Z,71.63
2023-02-03T07:39:27.567Z,71.86
2023-02-03T07:41:55.616Z,71.87
2023-02-03T07:44:25.063Z,72.09
2023-02-03T07:46:53.198Z,71.70
2023-02-03T07:49:21.145Z,71.70
2023-02-03T07:51:49.314Z,71.65
2023-02-03T07:54:17.222Z,71.47
2023-02-03T07:56:45.337Z,71.56
2023-02-03T07:59:14.010Z,71.41
2023-02-03T08:01:43.647Z,71.35
2023-02-03T08:04:16.014Z,71.35
2023-02-03T08:06:44.315Z,71.38
2023-02-03T08:09:12.345Z,71.41
2023-02-03T08:11:40.490Z,71.30
2023-02-03T08:14:08.582Z,71.21
2023-02-03T08:16:36.855Z,70.94
2023-02-03T08:19:06.481Z,70.94
2023-02-03T08:21:34.458Z,71.11
2023-02-03T08:24:02.647Z,70.80
2023-02-03T08:26:30.792Z,71.04
2023-02-03T08:32:17.263Z,71.20
2023-02-03T08:34:47.106Z,71.43
2023-02-03T08:37:16.694Z,71.34
2023-02-03T08:39:45.263Z,71.56
2023-02-03T08:42:13.377Z,71.84
2023-02-03T08:44:41.590Z,72.02
2023-02-03T08:47:09.922Z,71.85
2023-02-03T08:49:39.665Z,71.17
2023-02-03T08:52:10.478Z,71.17
2023-02-03T08:54:38.736Z,70.97
2023-02-03T08:57:06.817Z,70.40
2023-02-03T08:59:36.297Z,70.68
2023-02-03T09:02:04.866Z,70.47
2023-02-03T09:04:34.023Z,70.58
2023-02-03T09:07:04.529Z,70.38
2023-02-03T09:09:34.606Z,70.66
2023-02-03T09:12:05.547Z,70.63
2023-02-03T09:14:34.407Z,70.84
2023-02-03T09:17:03.443Z,70.92
2023-02-03T09:19:31.381Z,70.29
2023-02-03T09:21:59.345Z,70.02
2023-02-03T09:24:27.712Z,69.72
2023-02-03T09:26:57.365Z,69.48
2023-02-03T09:29:25.589Z,69.18
2023-02-03T09:31:54.190Z,68.75
2023-02-03T09:34:22.431Z,68.89
2023-02-03T09:36:51.481Z,69.28
2023-02-03T09:39:19.744Z,69.13
2023-02-03T09:42:02.526Z,68.97
2023-02-03T09:44:37.688Z,68.58
2023-02-03T09:47:11.971Z,68.75
2023-02-03T09:49:41.671Z,68.78
2023-02-03T09:52:13.265Z,68.89
2023-02-03T09:54:44.887Z,68.78
2023-02-03T09:57:17.181Z,68.82
2023-02-03T09:59:46.528Z,68.89
2023-02-03T10:02:34.000Z,68.57
2023-02-03T10:05:07.784Z,68.79
2023-02-03T10:07:43.718Z,68.53
2023-02-03T10:10:15.955Z,68.21
2023-02-03T10:12:48.562Z,68.21
2023-02-03T10:15:31.487Z,67.97
2023-02-03T10:18:03.815Z,68.25
2023-02-03T10:20:37.151Z,68.10
2023-02-03T10:23:08.299Z,67.63
2023-02-03T10:25:42.276Z,67.59
2023-02-03T10:28:16.411Z,67.43
2023-02-03T10:30:48.158Z,67.44
2023-02-03T10:33:18.351Z,67.41
2023-02-03T10:35:50.557Z,67.80
2023-02-03T10:38:24.171Z,68.13
2023-02-03T10:40:53.080Z,68.44
2023-02-03T10:43:38.854Z,68.50
2023-02-03T10:46:06.924Z,68.51
2023-02-03T10:48:36.960Z,68.67
2023-02-03T10:51:05.647Z,68.57
2023-02-03T10:53:34.760Z,68.53
2023-02-03T10:56:04.424Z,68.52
2023-02-03T10:58:34.693Z,68.56
2023-02-03T11:01:07.667Z,68.47
2023-02-03T11:03:38.263Z,68.49
2023-02-03T11:06:09.485Z,68.48
2023-02-03T11:08:38.878Z,68.53
2023-02-03T11:11:08.295Z,68.52
2023-02-03T11:13:36.809Z,68.44
2023-02-03T11:16:06.452Z,68.29
2023-02-03T11:18:49.473Z,68.54
2023-02-03T11:21:20.708Z,68.12
2023-02-03T11:23:54.660Z,67.75
2023-02-03T11:26:24.563Z,67.67
2023-02-03T11:28:54.385Z,67.15
2023-02-03T11:34:19.032Z,65.88
2023-02-03T11:36:48.509Z,66.01
2023-02-03T11:39:26.684Z,65.96
2023-02-03T11:41:55.238Z,65.62
2023-02-03T11:44:26.106Z,65.70
2023-02-03T11:46:56.606Z,64.87
2023-02-03T11:52:26.003Z,64.25
2023-02-03T11:54:57.201Z,64.03
2023-02-03T11:57:32.284Z,64.18
2023-02-03T12:00:11.238Z,64.37
2023-02-03T12:02:53.495Z,63.91
2023-02-03T12:05:34.340Z,64.18
2023-02-03T12:08:09.818Z,63.89
2023-02-03T12:10:43.754Z,63.99
2023-02-03T12:13:20.362Z,63.88
2023-02-03T12:15:55.802Z,63.95
2023-02-03T12:18:34.733Z,63.98
2023-02-03T12:21:08.934Z,63.86
2023-02-03T12:23:45.383Z,63.86
2023-02-03T12:26:19.798Z,63.70
2023-02-03T12:28:51.609Z,63.94
2023-02-03T12:31:25.045Z,63.97
2023-02-03T12:33:56.573Z,63.60
2023-02-03T12:36:28.273Z,63.64
2023-02-03T12:39:00.614Z,63.90
2023-02-03T12:41:31.393Z,63.72
2023-02-03T12:44:02.447Z,63.97
2023-02-03T12:46:32.512Z,63.59
2023-02-03T12:49:04.848Z,64.12
2023-02-03T12:51:37.312Z,64.17
2023-02-03T12:54:12.686Z,64.00
2023-02-03T12:56:43.231Z,64.16
2023-02-03T12:59:16.218Z,64.23
2023-02-03T13:01:46.794Z,64.37
2023-02-03T13:04:20.319Z,64.49
2023-02-03T13:06:52.224Z,64.82
2023-02-03T13:09:26.837Z,64.99
2023-02-03T13:11:57.646Z,65.16
2023-02-03T13:14:29.959Z,65.81
2023-02-03T13:17:01.601Z,65.73
2023-02-03T13:19:35.214Z,65.71
2023-02-03T13:22:03.436Z,65.89
2023-02-03T13:24:33.048Z,66.09
2023-02-03T13:27:11.517Z,66.39
2023-02-03T13:29:50.939Z,67.41
2023-02-03T13:32:29.927Z,67.87
2023-02-03T13:35:21.569Z,67.44
2023-02-03T13:38:07.396Z,67.93
2023-02-03T13:40:42.629Z,68.93
2023-02-03T13:43:17.395Z,68.71
2023-02-03T13:45:50.919Z,70.73
2023-02-03T13:48:20.746Z,70.41
2023-02-03T13:50:49.685Z,70.43
2023-02-03T13:53:19.177Z,70.42
2023-02-03T13:55:56.643Z,71.36
2023-02-03T13:58:26.673Z,71.33
2023-02-03T14:01:03.702Z,72.14
2023-02-03T14:03:47.797Z,72.50
2023-02-03T14:06:34.401Z,72.09
2023-02-03T14:09:02.501Z,72.14
2023-02-03T14:11:48.335Z,72.21
2023-02-03T14:14:34.966Z,72.96
2023-02-03T14:17:03.196Z,73.35
2023-02-03T14:19:58.359Z,73.42
2023-02-03T14:22:27.687Z,72.99
2023-02-03T14:24:57.727Z,74.00
2023-02-03T14:27:30.099Z,73.55
2023-02-03T14:32:52.203Z,75.37
2023-02-03T14:35:21.450Z,74.84
2023-02-03T14:37:54.404Z,75.17
2023-02-03T14:40:30.534Z,75.51
2023-02-03T14:43:12.237Z,75.79
2023-02-03T14:45:51.857Z,75.34
2023-02-03T14:48:36.240Z,75.86
2023-02-03T14:51:09.518Z,75.88
2023-02-03T14:53:46.148Z,75.68
2023-02-03T14:56:19.119Z,76.18
2023-02-03T14:58:51.658Z,75.99
2023-02-03T15:01:29.142Z,76.13
2023-02-03T15:04:21.879Z,76.52
2023-02-03T15:06:50.825Z,76.64
2023-02-03T15:09:23.458Z,76.73
2023-02-03T15:11:51.615Z,77.14
2023-02-03T15:14:25.115Z,77.35
2023-02-03T15:16:57.689Z,77.03
2023-02-03T15:19:27.128Z,76.98
2023-02-03T15:21:55.259Z,76.88
2023-02-03T15:24:26.018Z,77.55
2023-02-03T15:26:54.875Z,77.50
2023-02-03T15:29:26.583Z,77.58
2023-02-03T15:31:58.631Z,78.18
2023-02-03T15:34:30.031Z,79.05
2023-02-03T15:37:00.912Z,78.87
2023-02-03T15:39:37.575Z,78.69
2023-02-03T15:42:08.635Z,79.16
2023-02-03T15:44:41.470Z,78.49
2023-02-03T15:47:20.355Z,78.56
2023-02-03T15:49:52.079Z,77.99
2023-02-03T15:52:22.112Z,78.39
2023-02-03T15:54:54.863Z,78.16
2023-02-03T15:57:24.722Z,78.26
2023-02-03T15:59:55.072Z,78.30
2023-02-03T16:02:23.773Z,78.20
2023-02-03T16:04:52.046Z,78.39
2023-02-03T16:07:22.692Z,78.57
2023-02-03T16:09:53.750Z,78.47
2023-02-03T16:12:24.754Z,78.52
2023-02-03T16:14:53.151Z,78.49
2023-02-03T16:17:27.680Z,78.32
2023-02-03T16:20:16.947Z,78.56
2023-02-03T16:22:45.957Z,78.52
2023-02-03T16:25:14.514Z,78.39
2023-02-03T16:27:47.168Z,78.76
2023-02-03T16:30:42.793Z,78.56
2023-02-03T16:33:38.710Z,78.50
2023-02-03T16:36:29.776Z,78.48
2023-02-03T16:39:16.422Z,78.73
2023-02-03T16:42:01.810Z,78.49
2023-02-03T16:44:47.247Z,78.44
2023-02-03T16:47:40.782Z,78.24
2023-02-03T16:50:38.241Z,78.40
2023-02-03T16:53:07.443Z,78.69
2023-02-03T16:55:35.618Z,78.74
2023-02-03T16:58:03.557Z,78.71
2023-02-03T17:00:32.102Z,78.82
2023-02-03T17:03:00.224Z,79.14
2023-02-03T17:05:30.052Z,79.63
2023-02-03T17:07:58.253Z,79.94
2023-02-03T17:10:26.541Z,79.88
2023-02-03T17:12:54.522Z,80.70
2023-02-03T17:15:22.449Z,81.18
2023-02-03T17:17:50.391Z,80.47
2023-02-03T17:20:18.640Z,80.16
2023-02-03T17:22:51.740Z,80.24
2023-02-03T17:25:19.811Z,80.20
2023-02-03T17:30:56.823Z,80.79
2023-02-03T17:33:25.013Z,80.62
2023-02-03T17:36:01.156Z,80.50
2023-02-03T17:38:31.636Z,80.37
2023-02-03T17:54:52.232Z,80.43
2023-02-03T17:57:20.404Z,80.37
2023-02-03T17:59:48.891Z,80.45
2023-02-03T18:02:36.081Z,80.44
2023-02-03T18:05:07.478Z,80.52
2023-02-03T18:08:06.027Z,80.46
2023-02-03T18:10:56.441Z,80.55
2023-02-03T18:13:26.274Z,80.45
2023-02-03T18:15:56.982Z,80.48
2023-02-03T18:18:26.142Z,80.70
2023-02-03T18:20:54.351Z,80.60
2023-02-03T18:23:22.404Z,80.48
2023-02-03T18:25:54.147Z,80.23
2023-02-03T18:28:24.083Z,80.61
2023-02-03T18:30:52.249Z,80.47
2023-02-03T18:33:20.171Z,80.68
2023-02-03T18:35:50.816Z,80.40
2023-02-03T18:38:18.814Z,80.19
2023-02-03T18:40:46.827Z,80.53
2023-02-03T18:43:14.789Z,80.26
2023-02-03T18:45:44.415Z,80.47
2023-02-03T18:48:12.378Z,80.17
2023-02-03T18:50:42.398Z,80.22
2023-02-03T18:53:11.296Z,80.02
2023-02-03T18:55:41.714Z,79.95
2023-02-03T18:58:09.796Z,79.91
2023-02-03T19:00:37.814Z,79.78
2023-02-03T19:03:07.945Z,80.11
2023-02-03T19:05:35.924Z,79.79
2023-02-03T19:08:04.114Z,79.91
2023-02-03T19:10:32.628Z,79.77
2023-02-03T19:13:03.498Z,79.65
2023-02-03T19:15:31.531Z,79.68
2023-02-03T19:17:59.632Z,79.67
2023-02-03T19:20:29.283Z,79.47
2023-02-03T19:22:57.344Z,79.75
2023-02-03T19:25:25.545Z,79.55
2023-02-03T19:27:53.465Z,79.88
2023-02-03T19:30:22.244Z,79.77
2023-02-03T19:32:52.090Z,79.77
2023-02-03T19:35:20.099Z,79.54
2023-02-03T19:37:49.589Z,79.64
2023-02-03T19:40:17.604Z,79.68
2023-02-03T19:42:45.724Z,79.83
2023-02-03T19:45:13.782Z,80.09
2023-02-03T19:47:41.851Z,79.78
2023-02-03T19:50:10.285Z,79.65
2023-02-03T19:52:38.351Z,79.77
2023-02-03T19:55:08.081Z,79.62
2023-02-03T19:57:36.040Z,79.31
2023-02-03T20:00:04.411Z,79.74
2023-02-03T20:02:32.368Z,79.68
2023-02-03T20:05:00.667Z,79.58
2023-02-03T20:07:35.611Z,79.26
2023-02-03T20:10:06.562Z,79.17
2023-02-03T20:12:36.084Z,78.94
2023-02-03T20:15:04.134Z,79.22
2023-02-03T20:17:32.052Z,79.40
2023-02-03T20:20:00.202Z,78.82
2023-02-03T20:22:28.299Z,78.83
2023-02-03T20:24:56.227Z,78.33
2023-02-03T20:27:24.317Z,78.86
2023-02-03T20:32:52.131Z,78.85
2023-02-03T20:35:20.579Z,78.42
2023-02-03T20:37:48.506Z,78.32
2023-02-03T20:40:18.434Z,78.42
2023-02-03T20:42:47.532Z,78.26
2023-02-03T20:45:15.945Z,77.84
2023-02-03T20:47:44.044Z,77.98
2023-02-03T20:50:17.099Z,76.99
2023-02-03T20:52:45.342Z,77.34
2023-02-03T20:55:14.370Z,77.10
2023-02-03T20:57:42.646Z,77.09
2023-02-03T21:00:17.974Z,76.58
2023-02-03T21:03:17.943Z,76.79
2023-02-03T21:05:47.444Z,76.79
2023-02-03T21:08:15.672Z,76.56
2023-02-03T21:10:49.827Z,76.59
2023-02-03T21:13:20.795Z,76.49
2023-02-03T21:15:49.783Z,76.62
2023-02-03T21:18:29.756Z,76.69
2023-02-03T21:20:59.173Z,76.52
2023-02-03T21:23:29.279Z,76.32
2023-02-03T21:25:57.248Z,76.50
2023-02-03T21:28:26.760Z,76.31
2023-02-03T21:30:54.951Z,76.50
2023-02-03T21:33:30.247Z,76.50
2023-02-03T21:35:59.832Z,76.36
2023-02-03T21:38:31.010Z,76.13
2023-02-03T21:40:59.661Z,76.12
2023-02-03T21:43:27.611Z,76.33
2023-02-03T21:45:55.688Z,76.06
2023-02-03T21:48:32.210Z,76.01
2023-02-03T21:51:05.964Z,76.30
2023-02-03T21:53:35.894Z,76.05
2023-02-03T21:56:15.770Z,75.86
2023-02-03T21:58:44.826Z,76.17
2023-02-03T22:01:16.781Z,76.21
2023-02-03T22:03:47.697Z,75.91
2023-02-03T22:06:27.939Z,76.25
2023-02-03T22:08:56.658Z,76.13
2023-02-03T22:11:25.412Z,76.12
2023-02-03T22:13:53.488Z,76.13
2023-02-03T22:16:21.697Z,75.86
2023-02-03T22:18:50.267Z,75.96
2023-02-03T22:21:18.395Z,76.11
2023-02-03T22:23:48.089Z,76.09
2023-02-03T22:26:16.650Z,76.17
2023-02-03T22:28:44.716Z,76.15
2023-02-03T22:31:13.269Z,75.85
2023-02-03T22:33:42.090Z,76.00
2023-02-03T22:36:10.833Z,75.82
2023-02-03T22:38:39.927Z,76.11
2023-02-03T22:41:11.983Z,76.17
2023-02-03T22:43:40.608Z,76.04
2023-02-03T22:46:09.149Z,76.10
2023-02-03T22:48:37.170Z,76.22
2023-02-03T22:51:05.382Z,75.98
2023-02-03T22:53:34.921Z,75.87
2023-02-03T22:56:02.922Z,76.11
2023-02-03T22:58:32.317Z,76.01
2023-02-03T23:01:00.406Z,76.19
2023-02-03T23:03:32.178Z,75.96
2023-02-03T23:06:00.347Z,76.10
2023-02-03T23:08:28.435Z,76.03
2023-02-03T23:10:57.118Z,76.22
2023-02-03T23:13:25.094Z,76.34
2023-02-03T23:15:54.514Z,76.10
2023-02-03T23:18:22.577Z,76.01
2023-02-03T23:20:50.722Z,76.28
2023-02-03T23:23:18.641Z,76.06
2023-02-03T23:25:46.669Z,75.96
2023-02-03T23:28:14.608Z,76.05
2023-02-03T23:30:42.779Z,76.03
2023-02-03T23:33:12.287Z,76.59
2023-02-03T23:35:45.720Z,76.33
2023-02-03T23:38:13.965Z,76.32
2023-02-03T23:40:41.805Z,76.22
2023-02-03T23:43:34.722Z,76.21
2023-02-03T23:46:02.720Z,76.14
2023-02-03T23:48:32.247Z,76.35
2023-02-03T23:51:00.221Z,75.83
2023-02-03T23:53:28.635Z,76.23
2023-02-03T23:55:56.652Z,76.18
2023-02-03T23:58:24.771Z,76.49
